Time;durP1;ratioP1;P1;durP2;ratioP2;P2;SDS_P1;SDS_P2;PMS_P1;PMS_P2;Temp;Humidity;BMP_temperature;BMP_pressure;BME280_temperature;BME280_humidity;BME280_pressure;Samples;Min_cycle;Max_cycle;Signal;HPM_P1;HPM_P2
2024/02/06 00:01:19;;;;;;;34.75;32.45;;;;;;;9.57;100.00;101082.94;5000329;28;20516;-67
2024/02/06 00:03:46;;;;;;;34.78;32.47;;;;;;;9.57;100.00;101094.38;5003461;28;20065;-68
2024/02/06 00:06:14;;;;;;;31.08;28.77;;;;;;;9.64;100.00;101092.59;5002479;28;20403;-68
2024/02/06 00:08:41;;;;;;;30.88;28.42;;;;;;;9.69;100.00;101102.63;4996079;28;20046;-66
2024/02/06 00:11:08;;;;;;;33.63;31.35;;;;;;;9.69;100.00;101115.09;4996036;28;20063;-66
2024/02/06 00:13:35;;;;;;;32.88;30.58;;;;;;;9.49;100.00;101113.06;4999513;28;20117;-68
2024/02/06 00:16:02;;;;;;;28.60;26.52;;;;;;;9.43;100.00;101124.41;4988352;28;20117;-68
2024/02/06 00:18:32;;;;;;;27.70;25.70;;;;;;;9.40;100.00;101130.09;4998256;28;20045;-68
2024/02/06 00:20:58;;;;;;;29.50;27.40;;;;;;;9.48;100.00;101123.88;4996874;28;20516;-67
2024/02/06 00:23:27;;;;;;;32.50;30.30;;;;;;;9.35;100.00;101119.25;5001823;28;20764;-66
2024/02/06 00:25:55;;;;;;;32.70;30.40;;;;;;;9.48;100.00;101114.06;5000465;28;20701;-68
2024/02/06 00:28:22;;;;;;;27.52;25.52;;;;;;;9.29;100.00;101115.50;4998534;28;20069;-68
2024/02/06 00:30:49;;;;;;;31.70;29.50;;;;;;;9.34;100.00;101122.88;4999295;28;20061;-68
2024/02/06 00:33:16;;;;;;;31.35;29.10;;;;;;;9.41;100.00;101121.16;5001805;28;20057;-66
2024/02/06 00:35:43;;;;;;;30.05;27.95;;;;;;;9.38;100.00;101130.28;5001645;28;20042;-66
2024/02/06 00:38:11;;;;;;;28.75;26.45;;;;;;;9.24;100.00;101125.03;4998492;28;20053;-66
2024/02/06 00:40:40;;;;;;;31.85;29.60;;;;;;;9.18;100.00;101129.25;4998792;28;20527;-68
2024/02/06 00:43:07;;;;;;;27.83;25.63;;;;;;;9.28;100.00;101123.63;5002314;28;20062;-68
2024/02/06 00:45:34;;;;;;;30.55;28.45;;;;;;;8.97;100.00;101116.75;4995437;28;20057;-68
2024/02/06 00:48:03;;;;;;;28.60;26.30;;;;;;;9.27;100.00;101117.53;5002109;28;20774;-68
2024/02/06 00:50:30;;;;;;;29.52;27.35;;;;;;;9.40;100.00;101119.47;5002022;28;20075;-68
2024/02/06 00:52:57;;;;;;;27.90;25.55;;;;;;;9.41;100.00;101129.09;5001096;28;20057;-68
2024/02/06 00:55:24;;;;;;;25.33;23.30;;;;;;;9.47;100.00;101143.41;5000738;28;20400;-68
2024/02/06 00:57:53;;;;;;;34.22;31.92;;;;;;;9.26;100.00;101133.59;5000814;28;20058;-68
2024/02/06 01:00:20;;;;;;;32.63;30.42;;;;;;;9.04;100.00;101125.59;5000832;28;20510;-68
2024/02/06 01:02:47;;;;;;;26.88;24.98;;;;;;;9.06;100.00;101128.09;4998875;28;20070;-68
2024/02/06 01:05:14;;;;;;;26.90;25.00;;;;;;;8.92;100.00;101124.44;5003737;28;20058;-68
2024/02/06 01:07:41;;;;;;;33.90;31.60;;;;;;;9.23;100.00;101113.63;5002825;28;20400;-68
2024/02/06 01:10:08;;;;;;;106.40;100.07;;;;;;;9.04;100.00;101122.97;5004605;28;20054;-68
2024/02/06 01:12:35;;;;;;;109.30;102.80;;;;;;;9.03;100.00;101113.38;4999028;28;20057;-68
2024/02/06 01:15:04;;;;;;;88.13;83.03;;;;;;;9.03;100.00;101116.03;5002240;28;20862;-68
2024/02/06 01:17:31;;;;;;;88.75;83.50;;;;;;;9.06;100.00;101125.44;5005080;28;20049;-68
2024/02/06 01:19:58;;;;;;;35.70;33.20;;;;;;;9.04;100.00;101116.84;5003893;28;20418;-68
2024/02/06 01:22:25;;;;;;;37.75;35.15;;;;;;;9.17;100.00;101125.78;4994362;28;20062;-68
2024/02/06 01:24:52;;;;;;;39.13;36.58;;;;;;;9.37;100.00;101133.13;5003657;28;20077;-68
2024/02/06 01:27:19;;;;;;;87.95;82.78;;;;;;;9.01;100.00;101133.94;4997525;28;20519;-68
2024/02/06 01:29:46;;;;;;;113.30;106.72;;;;;;;8.84;100.00;101127.22;5006282;28;20081;-68
2024/02/06 01:32:14;;;;;;;86.25;81.15;;;;;;;9.13;100.00;101134.28;5004706;28;20062;-68
2024/02/06 01:34:42;;;;;;;82.88;78.03;;;;;;;9.12;100.00;101138.75;5002516;28;20066;-68
2024/02/06 01:37:09;;;;;;;77.70;73.00;;;;;;;8.85;100.00;101144.75;5001632;28;20065;-68
2024/02/06 01:39:36;;;;;;;87.13;82.10;;;;;;;8.84;100.00;101151.88;4999384;28;20056;-66
2024/02/06 01:42:06;;;;;;;103.40;97.68;;;;;;;8.70;100.00;101152.69;5002380;28;20050;-66
2024/02/06 01:44:36;;;;;;;97.75;92.25;;;;;;;8.93;100.00;101142.00;5004865;28;20422;-66
2024/02/06 01:47:03;;;;;;;79.35;74.75;;;;;;;9.25;100.00;101146.03;5004756;28;20586;-68
2024/02/06 01:49:32;;;;;;;81.25;76.60;;;;;;;8.97;100.00;101148.56;4999464;28;20069;-66
2024/02/06 01:51:59;;;;;;;75.57;71.18;;;;;;;9.23;100.00;101152.53;5000056;28;20054;-67
2024/02/06 01:54:27;;;;;;;84.18;79.28;;;;;;;9.32;100.00;101151.41;5002080;28;20061;-66
2024/02/06 01:56:54;;;;;;;83.05;78.20;;;;;;;9.12;100.00;101156.50;5000239;28;20065;-68
2024/02/06 01:59:22;;;;;;;25.77;23.88;;;;;;;8.97;100.00;101161.81;5000119;28;20050;-68
2024/02/06 02:01:50;;;;;;;28.05;26.08;;;;;;;8.92;100.00;101167.66;5005793;28;20055;-66
2024/02/06 02:04:17;;;;;;;30.40;28.40;;;;;;;8.85;100.00;101164.09;4997438;28;20065;-66
2024/02/06 02:06:46;;;;;;;26.20;24.40;;;;;;;9.07;100.00;101158.88;5003923;28;20498;-66
2024/02/06 02:09:13;;;;;;;27.27;25.27;;;;;;;9.29;100.00;101154.44;4996919;28;20062;-66
2024/02/06 02:11:40;;;;;;;30.30;28.20;;;;;;;9.06;100.00;101151.94;5003555;28;20046;-66
2024/02/06 02:14:09;;;;;;;32.15;29.85;;;;;;;9.09;100.00;101152.38;4996529;28;20061;-68
2024/02/06 02:16:36;;;;;;;28.17;26.17;;;;;;;9.02;100.00;101153.31;4996258;28;20112;-68
2024/02/06 02:19:05;;;;;;;28.38;26.48;;;;;;;9.05;100.00;101140.50;4998901;28;20062;-68
2024/02/06 02:21:38;;;;;;;30.67;28.67;;;;;;;9.05;100.00;101145.81;5001392;28;20081;-66
2024/02/06 02:24:06;;;;;;;31.50;29.40;;;;;;;9.22;100.00;101145.59;4999060;28;20050;-66
2024/02/06 02:26:39;;;;;;;28.35;26.35;;;;;;;9.04;100.00;101151.28;5001139;28;20803;-66
2024/02/06 02:29:06;;;;;;;26.80;24.90;;;;;;;9.09;100.00;101151.56;4994236;28;20065;-66
2024/02/06 02:31:39;;;;;;;31.98;29.98;;;;;;;9.16;100.00;101147.97;5002718;28;20041;-66
2024/02/06 02:34:07;;;;;;;;;;;;;;;9.13;100.00;101147.53;4993107;28;20429;-66
2024/02/06 02:36:35;;;;;;;33.78;31.67;;;;;;;9.07;100.00;101145.63;5001975;28;20314;-66
2024/02/06 02:39:03;;;;;;;30.05;27.75;;;;;;;8.94;100.00;101154.22;5003786;28;20508;-67
2024/02/06 02:41:30;;;;;;;28.67;26.77;;;;;;;9.19;100.00;101146.78;5002911;28;20050;-68
2024/02/06 02:43:57;;;;;;;36.22;33.92;;;;;;;9.32;100.00;101156.72;5003746;28;20577;-66
2024/02/06 02:46:24;;;;;;;29.67;27.67;;;;;;;9.04;100.00;101157.41;5004178;28;20049;-66
2024/02/06 02:48:51;;;;;;;28.98;27.08;;;;;;;9.09;100.00;101157.69;5002176;28;20061;-67
2024/02/06 02:51:17;;;;;;;33.80;30.48;;;;;;;9.04;100.00;101152.09;5003597;28;20050;-66
2024/02/06 02:53:46;;;;;;;29.13;27.25;;;;;;;8.87;100.00;101150.69;5004078;28;20553;-68
2024/02/06 02:56:13;;;;;;;29.10;27.20;;;;;;;9.11;100.00;101160.97;4995944;28;20061;-68
2024/02/06 02:58:40;;;;;;;26.90;25.00;;;;;;;9.17;100.00;101156.75;5005335;28;20052;-66
2024/02/06 03:01:07;;;;;;;29.50;27.60;;;;;;;9.27;100.00;101170.53;4994391;28;20137;-66
2024/02/06 03:03:34;;;;;;;25.23;23.63;;;;;;;9.15;100.00;101164.06;5001146;28;20081;-68
2024/02/06 03:06:01;;;;;;;30.75;28.95;;;;;;;8.96;100.00;101170.78;5003364;28;20061;-66
2024/02/06 03:08:28;;;;;;;33.33;31.42;;;;;;;9.00;100.00;101168.56;4999658;28;20102;-66
2024/02/06 03:10:56;;;;;;;32.72;30.83;;;;;;;9.07;100.00;101180.06;4998783;28;20054;-66
2024/02/06 03:13:23;;;;;;;31.33;29.42;;;;;;;9.19;100.00;101170.63;4998070;28;20460;-66
2024/02/06 03:15:50;;;;;;;31.85;29.95;;;;;;;9.25;100.00;101179.69;4998691;28;20049;-66
2024/02/06 03:18:17;;;;;;;34.70;32.80;;;;;;;9.27;100.00;101182.97;5000619;28;20054;-66
2024/02/06 03:20:44;;;;;;;35.60;33.60;;;;;;;9.23;100.00;101174.56;4996779;28;20069;-66
2024/02/06 03:23:13;;;;;;;26.73;25.00;;;;;;;9.37;100.00;101181.66;4995665;28;20061;-66
2024/02/06 03:25:39;;;;;;;53.30;50.35;;;;;;;9.28;100.00;101177.47;4996889;28;20065;-66
2024/02/06 03:28:08;;;;;;;50.97;48.28;;;;;;;9.23;100.00;101176.38;4998158;28;20058;-67
2024/02/06 03:30:35;;;;;;;45.85;43.15;;;;;;;9.18;100.00;101166.34;4994890;28;20054;-66
2024/02/06 03:33:02;;;;;;;46.35;43.65;;;;;;;9.20;100.00;101171.44;5003602;28;20053;-66
2024/02/06 03:35:29;;;;;;;55.05;51.75;;;;;;;9.31;100.00;101161.19;5000639;28;20140;-66
2024/02/06 03:37:56;;;;;;;36.85;34.75;;;;;;;9.30;100.00;101161.38;4995565;28;20058;-66
2024/02/06 03:40:23;;;;;;;29.70;27.80;;;;;;;9.30;100.00;101169.34;5001136;28;20062;-66
2024/02/06 03:42:50;;;;;;;58.75;55.40;;;;;;;9.29;100.00;101168.53;5000320;28;20057;-66
2024/02/06 03:45:18;;;;;;;63.70;59.88;;;;;;;9.32;100.00;101167.31;5002536;28;20072;-66
2024/02/06 03:47:45;;;;;;;79.85;75.32;;;;;;;9.28;100.00;101166.88;4993893;28;20058;-66
2024/02/06 03:50:12;;;;;;;73.35;69.25;;;;;;;9.31;100.00;101165.69;4999763;28;20057;-66
2024/02/06 03:52:39;;;;;;;63.08;59.38;;;;;;;9.41;100.00;101158.25;4993443;28;20058;-67
2024/02/06 03:55:07;;;;;;;27.98;25.75;;;;;;;9.36;100.00;101158.00;5003580;28;20050;-66
2024/02/06 03:57:34;;;;;;;35.15;32.97;;;;;;;9.25;100.00;101169.88;4995103;28;20058;-66
2024/02/06 04:00:01;;;;;;;27.45;25.65;;;;;;;9.27;100.00;101161.75;4999124;28;20057;-66
2024/02/06 04:02:29;;;;;;;36.53;34.33;;;;;;;9.24;100.00;101162.13;4996990;28;20498;-66
2024/02/06 04:04:56;;;;;;;40.22;37.83;;;;;;;9.18;100.00;101175.13;4998122;28;20054;-66
2024/02/06 04:07:23;;;;;;;43.30;40.80;;;;;;;9.31;100.00;101161.19;4998428;28;20128;-66
2024/02/06 04:09:50;;;;;;;37.65;35.45;;;;;;;9.06;100.00;101163.34;4997547;28;20050;-66
2024/02/06 04:12:17;;;;;;;45.90;43.25;;;;;;;9.27;100.00;101170.53;5004715;28;20052;-66
2024/02/06 04:14:44;;;;;;;38.25;35.95;;;;;;;9.21;100.00;101170.47;5001765;28;20053;-66
2024/02/06 04:17:11;;;;;;;46.60;44.00;;;;;;;9.22;100.00;101167.59;4991597;28;20587;-66
2024/02/06 04:19:39;;;;;;;26.20;24.40;;;;;;;9.31;100.00;101171.78;4991975;28;20054;-66
2024/02/06 04:22:06;;;;;;;24.77;23.08;;;;;;;9.22;100.00;101172.91;5000477;28;20430;-66
2024/02/06 04:24:33;;;;;;;47.42;44.63;;;;;;;9.15;100.00;101172.84;5002802;28;20053;-66
2024/02/06 04:27:00;;;;;;;54.63;51.45;;;;;;;9.07;100.00;101177.41;5006106;28;20430;-66
2024/02/06 04:29:27;;;;;;;45.25;41.60;;;;;;;9.24;100.00;101175.38;5002038;28;20058;-67
2024/02/06 04:31:54;;;;;;;38.42;36.25;;;;;;;9.23;100.00;101182.53;4998412;28;20061;-66
2024/02/06 04:34:20;;;;;;;48.63;45.72;;;;;;;9.23;100.00;101176.38;5001699;28;20062;-66
2024/02/06 04:36:49;;;;;;;51.95;48.85;;;;;;;9.64;100.00;101181.94;5002481;28;20068;-66
2024/02/06 04:39:16;;;;;;;58.15;54.75;;;;;;;9.46;100.00;101186.84;4998035;28;20433;-66
2024/02/06 04:41:43;;;;;;;59.70;56.30;;;;;;;9.44;100.00;101179.09;4997690;28;20062;-66
2024/02/06 04:44:10;;;;;;;52.78;49.65;;;;;;;9.37;100.00;101180.84;5004935;28;20056;-66
2024/02/06 04:46:37;;;;;;;50.67;47.42;;;;;;;9.37;100.00;101181.66;5004483;28;20058;-66
2024/02/06 04:49:06;;;;;;;56.67;52.60;;;;;;;9.24;100.00;101170.91;4999079;28;20489;-67
2024/02/06 04:51:37;;;;;;;39.03;36.45;;;;;;;9.27;100.00;101175.84;5004517;28;20050;-67
2024/02/06 04:54:06;;;;;;;33.13;30.75;;;;;;;9.24;100.00;101183.34;5004775;28;20061;-66
2024/02/06 04:56:33;;;;;;;34.05;31.95;;;;;;;9.22;100.00;101174.75;4996939;28;20057;-67
2024/02/06 04:59:01;;;;;;;28.05;25.85;;;;;;;9.39;100.00;101169.03;5003587;28;20065;-66
2024/02/06 05:01:28;;;;;;;25.83;23.52;;;;;;;9.58;100.00;101174.75;4997674;28;20057;-67
2024/02/06 05:03:55;;;;;;;37.85;34.65;;;;;;;9.49;100.00;101165.25;5003628;28;20381;-66
2024/02/06 05:06:22;;;;;;;32.88;29.88;;;;;;;9.58;100.00;101162.31;5000789;28;20136;-66
2024/02/06 05:08:49;;;;;;;30.38;28.13;;;;;;;9.52;100.00;101173.66;5004675;28;20060;-66
2024/02/06 05:11:17;;;;;;;35.25;32.95;;;;;;;9.53;100.00;101171.81;4998157;28;20062;-67
2024/02/06 05:13:44;;;;;;;35.20;32.20;;;;;;;9.49;100.00;101171.38;5000478;28;20549;-66
2024/02/06 05:16:11;;;;;;;33.30;31.20;;;;;;;9.50;100.00;101167.75;5001716;28;20141;-66
2024/02/06 05:18:38;;;;;;;31.55;29.45;;;;;;;9.54;100.00;101174.31;5005796;28;20528;-66
2024/02/06 05:21:05;;;;;;;32.00;29.90;;;;;;;9.66;100.00;101173.81;5004735;28;20058;-66
2024/02/06 05:23:32;;;;;;;27.80;26.00;;;;;;;9.65;100.00;101178.28;5003249;28;20656;-68
2024/02/06 05:25:59;;;;;;;29.90;28.00;;;;;;;9.63;100.00;101173.19;5004159;28;20057;-67
2024/02/06 05:28:27;;;;;;;32.38;30.27;;;;;;;9.62;100.00;101179.50;5002303;28;20050;-66
2024/02/06 05:30:56;;;;;;;24.15;22.45;;;;;;;9.63;100.00;101185.63;5001352;28;20068;-68
2024/02/06 05:33:22;;;;;;;23.83;22.20;;;;;;;9.63;100.00;101181.13;4999250;28;20050;-68
2024/02/06 05:35:49;;;;;;;28.67;26.77;;;;;;;9.72;100.00;101175.72;5005295;28;20336;-68
2024/02/06 05:38:16;;;;;;;27.63;25.83;;;;;;;9.71;100.00;101185.47;4992915;28;20050;-68
2024/02/06 05:40:43;;;;;;;24.70;23.05;;;;;;;9.71;100.00;101188.13;5002595;28;20179;-68
2024/02/06 05:43:10;;;;;;;28.55;26.75;;;;;;;9.68;100.00;101187.69;5004969;28;20062;-68
2024/02/06 05:45:39;;;;;;;24.33;22.63;;;;;;;9.92;100.00;101181.19;5001089;28;20521;-79
2024/02/06 05:48:06;;;;;;;23.02;21.42;;;;;;;9.79;100.00;101189.84;5005984;28;20049;-68
2024/02/06 05:50:34;;;;;;;26.20;24.30;;;;;;;9.91;100.00;101185.69;5006974;28;20050;-68
2024/02/06 05:53:00;;;;;;;26.42;24.63;;;;;;;9.96;100.00;101193.91;4997997;28;20058;-68
2024/02/06 05:55:28;;;;;;;26.98;24.75;;;;;;;9.81;100.00;101183.34;4999256;28;20053;-68
2024/02/06 05:57:55;;;;;;;29.73;27.65;;;;;;;9.86;100.00;101196.88;4997757;28;20065;-68
2024/02/06 06:00:26;;;;;;;26.90;25.00;;;;;;;9.91;100.00;101190.19;5004527;28;20076;-68
2024/02/06 06:02:54;;;;;;;30.05;27.90;;;;;;;9.99;100.00;101192.72;4998153;28;20969;-68
2024/02/06 06:05:23;;;;;;;25.58;23.67;;;;;;;10.00;100.00;101199.66;4999333;28;20096;-68
2024/02/06 06:07:49;;;;;;;28.08;26.08;;;;;;;10.12;100.00;101200.78;5004485;28;20794;-68
2024/02/06 06:10:17;;;;;;;32.13;29.77;;;;;;;10.27;100.00;101211.34;5000459;28;20050;-68
2024/02/06 06:12:44;;;;;;;25.38;23.73;;;;;;;10.23;100.00;101202.94;5002896;28;20128;-68
2024/02/06 06:15:11;;;;;;;25.33;23.48;;;;;;;10.27;100.00;101214.00;4997289;28;20084;-68
2024/02/06 06:17:38;;;;;;;28.67;26.77;;;;;;;10.29;100.00;101212.00;5002176;28;20060;-68
2024/02/06 06:20:07;;;;;;;26.70;24.90;;;;;;;10.17;100.00;101203.69;5015334;28;20583;-68
2024/02/06 06:22:34;;;;;;;24.25;22.55;;;;;;;10.70;100.00;101208.59;5011482;28;20042;-68
2024/02/06 06:25:01;;;;;;;26.45;24.55;;;;;;;10.42;100.00;101209.44;5001596;28;20526;-68
2024/02/06 06:27:28;;;;;;;27.55;25.55;;;;;;;10.55;100.00;101212.16;5004216;28;20050;-68
2024/02/06 06:29:55;;;;;;;25.23;22.60;;;;;;;10.57;100.00;101211.19;5004749;28;20768;-68
2024/02/06 06:32:22;;;;;;;24.90;22.92;;;;;;;10.59;100.00;101203.81;5003778;28;20502;-68
2024/02/06 06:34:48;;;;;;;25.85;23.67;;;;;;;10.49;100.00;101209.47;4996233;28;20050;-68
2024/02/06 06:37:18;;;;;;;26.55;24.65;;;;;;;10.80;100.00;101203.75;4996919;28;20089;-68
2024/02/06 06:39:47;;;;;;;28.05;26.05;;;;;;;10.77;100.00;101191.69;4999781;28;20050;-68
2024/02/06 06:42:15;;;;;;;28.40;26.40;;;;;;;11.37;100.00;101185.81;4997487;28;20046;-68
2024/02/06 06:44:42;;;;;;;27.33;25.23;;;;;;;11.19;100.00;101189.84;5003552;28;20069;-68
2024/02/06 06:47:11;;;;;;;33.88;31.58;;;;;;;11.12;100.00;101191.66;4999025;28;20057;-68
2024/02/06 06:49:39;;;;;;;30.55;28.45;;;;;;;11.05;100.00;101193.47;5005995;28;20052;-66
2024/02/06 06:52:08;;;;;;;29.35;27.17;;;;;;;11.30;100.00;101199.09;5008060;28;20441;-68
2024/02/06 06:54:36;;;;;;;28.20;26.10;;;;;;;11.33;100.00;101201.34;5006966;28;20111;-68
2024/02/06 06:57:04;;;;;;;27.80;25.60;;;;;;;11.38;100.00;101206.91;4998083;28;20061;-68
2024/02/06 06:59:31;;;;;;;29.52;27.30;;;;;;;11.62;100.00;101213.53;5003007;28;20668;-68
2024/02/06 07:01:58;;;;;;;32.42;30.33;;;;;;;11.49;100.00;101218.78;4996194;28;20062;-68
2024/02/06 07:04:25;;;;;;;28.90;26.90;;;;;;;11.78;100.00;101219.50;5003845;28;20646;-68
2024/02/06 07:06:52;;;;;;;27.83;25.70;;;;;;;11.45;100.00;101222.88;4997257;28;20065;-68
2024/02/06 07:09:20;;;;;;;32.03;29.92;;;;;;;12.14;100.00;101220.00;5002019;28;20057;-68
2024/02/06 07:11:49;;;;;;;28.13;26.13;;;;;;;12.16;100.00;101227.75;5007292;28;20494;-68
2024/02/06 07:14:16;;;;;;;29.05;26.95;;;;;;;11.51;100.00;101229.25;5008165;28;20497;-68
2024/02/06 07:16:43;;;;;;;28.77;26.65;;;;;;;12.12;100.00;101235.34;4998014;28;20433;-68
2024/02/06 07:19:10;;;;;;;28.52;26.48;;;;;;;11.77;100.00;101228.50;5001468;28;20061;-68
2024/02/06 07:21:37;;;;;;;29.48;27.38;;;;;;;11.99;100.00;101237.19;5002206;28;20053;-68
2024/02/06 07:24:05;;;;;;;27.10;25.10;;;;;;;12.02;100.00;101231.47;4992936;28;20145;-68
2024/02/06 07:26:32;;;;;;;29.50;27.50;;;;;;;12.00;100.00;101228.97;5002017;28;20469;-68
2024/02/06 07:29:01;;;;;;;24.95;23.23;;;;;;;11.85;100.00;101236.34;4998093;28;20618;-68
2024/02/06 07:31:27;;;;;;;27.42;25.70;;;;;;;12.18;100.00;101238.22;5008993;28;20062;-68
2024/02/06 07:33:55;;;;;;;29.13;27.23;;;;;;;11.82;100.00;101240.19;4998513;28;20046;-68
2024/02/06 07:36:21;;;;;;;27.58;25.77;;;;;;;11.30;100.00;101235.50;5000077;28;20144;-68
2024/02/06 07:38:48;;;;;;;28.30;26.40;;;;;;;12.29;100.00;101248.28;4993529;28;20054;-68
2024/02/06 07:41:16;;;;;;;26.25;24.35;;;;;;;11.64;100.00;101248.72;4998387;28;20171;-68
2024/02/06 07:43:43;;;;;;;27.88;25.88;;;;;;;11.88;100.00;101239.41;4995032;28;20054;-68
2024/02/06 07:46:11;;;;;;;26.17;24.33;;;;;;;11.80;100.00;101244.91;4994253;28;20499;-68
2024/02/06 07:48:38;;;;;;;28.58;26.55;;;;;;;12.90;100.00;101242.69;4994950;28;20152;-68
2024/02/06 07:51:07;;;;;;;36.33;34.03;;;;;;;13.26;100.00;101236.06;4997314;28;20042;-68
2024/02/06 07:53:35;;;;;;;29.20;27.10;;;;;;;12.43;100.00;101233.91;4994305;28;20076;-68
2024/02/06 07:56:04;;;;;;;30.83;28.63;;;;;;;13.19;100.00;101236.06;5000298;28;20060;-68
2024/02/06 07:58:31;;;;;;;30.40;28.20;;;;;;;13.70;100.00;101237.09;4992904;28;20489;-68
2024/02/06 08:00:58;;;;;;;32.25;30.05;;;;;;;13.83;100.00;101233.50;4998624;28;20060;-68
2024/02/06 08:03:26;;;;;;;28.80;26.90;;;;;;;12.68;100.00;101241.28;4992897;28;20054;-68
2024/02/06 08:05:53;;;;;;;32.80;30.58;;;;;;;14.20;100.00;101248.69;4998326;28;20045;-68
2024/02/06 08:08:20;;;;;;;36.78;34.38;;;;;;;13.85;100.00;101236.78;4998607;28;20057;-68
2024/02/06 08:10:47;;;;;;;29.08;26.77;;;;;;;14.28;100.00;101246.78;4998281;28;20058;-68
2024/02/06 08:13:13;;;;;;;29.92;27.73;;;;;;;14.29;100.00;101251.09;5001813;28;20049;-68
2024/02/06 08:15:40;;;;;;;34.60;32.30;;;;;;;14.61;100.00;101247.38;4998552;28;20057;-66
2024/02/06 08:18:07;;;;;;;29.20;27.10;;;;;;;14.12;100.00;101235.59;4993145;28;20065;-66
2024/02/06 08:20:36;;;;;;;30.45;28.15;;;;;;;13.65;100.00;101232.41;4997463;28;20058;-66
2024/02/06 08:23:03;;;;;;;34.85;32.45;;;;;;;15.08;100.00;101236.19;5000219;28;20060;-66
2024/02/06 08:25:31;;;;;;;32.50;30.30;;;;;;;14.46;100.00;101236.13;4994811;28;20050;-68
2024/02/06 08:27:59;;;;;;;29.00;26.80;;;;;;;13.90;100.00;101243.13;4992186;28;20062;-68
2024/02/06 08:30:26;;;;;;;29.38;27.38;;;;;;;14.49;100.00;101246.38;4996891;28;20034;-66
2024/02/06 08:32:53;;;;;;;35.42;33.28;;;;;;;13.91;100.00;101238.59;5004478;28;20050;-66
2024/02/06 08:35:21;;;;;;;28.08;26.17;;;;;;;13.87;100.00;101240.91;4996384;28;20422;-68
2024/02/06 08:37:49;;;;;;;27.50;25.60;;;;;;;14.48;100.00;101246.63;4999414;28;20058;-66
2024/02/06 08:40:16;;;;;;;28.67;26.67;;;;;;;15.54;100.00;101234.81;4997603;28;20132;-66
2024/02/06 08:42:43;;;;;;;34.42;32.22;;;;;;;16.25;88.78;101235.88;5004784;28;20132;-66
2024/02/06 08:45:10;;;;;;;27.73;25.83;;;;;;;14.49;100.00;101242.91;5004920;28;20053;-68
2024/02/06 08:47:37;;;;;;;27.13;25.23;;;;;;;15.56;100.00;101241.56;5003866;28;20049;-67
2024/02/06 08:50:06;;;;;;;34.15;32.05;;;;;;;14.10;100.00;101240.34;5016439;28;20058;-67
2024/02/06 08:52:35;;;;;;;27.15;25.33;;;;;;;14.94;100.00;101250.75;5004705;28;20049;-66
2024/02/06 08:55:03;;;;;;;31.00;28.70;;;;;;;16.46;93.78;101248.72;5007879;28;20128;-68
2024/02/06 08:57:31;;;;;;;28.55;26.35;;;;;;;15.99;100.00;101251.31;5001418;28;20049;-68
2024/02/06 08:59:57;;;;;;;27.58;25.38;;;;;;;16.63;83.23;101254.19;4998265;28;20064;-66
2024/02/06 09:02:26;;;;;;;35.85;33.28;;;;;;;16.70;87.64;101262.13;4994171;28;20085;-67
2024/02/06 09:04:54;;;;;;;30.85;28.63;;;;;;;15.41;100.00;101259.88;5003812;28;20060;-69
2024/02/06 09:07:24;;;;;;;30.25;27.83;;;;;;;16.90;83.72;101259.13;4998329;28;20470;-69
2024/02/06 09:09:52;;;;;;;28.60;26.40;;;;;;;15.74;90.69;101262.16;4997826;28;20507;-67
2024/02/06 09:12:20;;;;;;;37.22;34.63;;;;;;;18.20;71.81;101243.38;5001461;28;20127;-67
2024/02/06 09:14:47;;;;;;;29.27;26.98;;;;;;;17.83;71.82;101257.28;5003880;28;20141;-67
2024/02/06 09:17:14;;;;;;;30.30;27.90;;;;;;;17.40;75.11;101262.06;5002784;28;20081;-69
2024/02/06 09:19:41;;;;;;;37.70;35.10;;;;;;;16.18;93.41;101252.03;5002116;28;20498;-68
2024/02/06 09:22:08;;;;;;;37.03;34.53;;;;;;;18.00;67.63;101255.44;4998797;28;20059;-67
2024/02/06 09:24:35;;;;;;;29.92;27.73;;;;;;;17.01;74.77;101262.84;4998144;28;20057;-66
2024/02/06 09:27:02;;;;;;;33.45;30.85;;;;;;;17.70;66.96;101247.59;5000920;28;20117;-67
2024/02/06 09:29:31;;;;;;;38.33;35.53;;;;;;;17.02;71.10;101251.88;5001949;28;20449;-66
2024/02/06 09:31:58;;;;;;;31.08;28.88;;;;;;;16.38;90.64;101256.28;5003241;28;20073;-69
2024/02/06 09:34:25;;;;;;;29.45;27.15;;;;;;;17.71;71.17;101241.16;5001491;28;20427;-66
2024/02/06 09:36:51;;;;;;;52.17;48.78;;;;;;;16.69;82.41;101237.16;5001444;28;20069;-66
2024/02/06 09:39:19;;;;;;;49.28;46.08;;;;;;;16.84;83.93;101235.91;5000110;28;20816;-66
2024/02/06 09:41:47;;;;;;;46.28;43.17;;;;;;;17.96;70.96;101231.97;4999487;28;20050;-67
2024/02/06 09:44:14;;;;;;;47.45;44.35;;;;;;;18.32;59.21;101233.38;4998352;28;20046;-69
2024/02/06 09:46:45;;;;;;;51.90;48.50;;;;;;;19.02;56.39;101223.91;5003865;28;20435;-69
2024/02/06 09:49:12;;;;;;;48.92;45.63;;;;;;;16.53;82.52;101226.34;5000555;28;20053;-67
2024/02/06 09:51:41;;;;;;;43.10;40.10;;;;;;;16.65;83.08;101206.50;5003305;28;20136;-68
2024/02/06 09:54:10;;;;;;;42.75;39.75;;;;;;;17.11;71.83;101201.34;5002398;28;20050;-69
2024/02/06 09:56:40;;;;;;;38.00;35.30;;;;;;;17.48;74.72;101192.91;5003074;28;20112;-69
2024/02/06 09:59:07;;;;;;;30.20;28.00;;;;;;;18.02;66.01;101193.38;5001472;28;20054;-69
2024/02/06 10:01:38;;;;;;;31.23;29.02;;;;;;;16.89;79.38;101188.56;5000544;28;20157;-66
2024/02/06 10:04:10;;;;;;;36.75;34.15;;;;;;;18.67;62.93;101176.59;5002058;28;20053;-66
2024/02/06 10:06:37;;;;;;;39.25;36.95;;;;;;;19.05;55.38;101184.91;4998305;28;20096;-66
2024/02/06 10:09:07;;;;;;;44.30;41.40;;;;;;;16.97;78.04;101176.63;4998461;28;20064;-67
2024/02/06 10:11:35;;;;;;;46.22;43.17;;;;;;;18.30;64.72;101171.75;4999011;28;20765;-68
2024/02/06 10:14:03;;;;;;;41.85;39.05;;;;;;;17.61;67.64;101165.78;4992004;28;20047;-69
2024/02/06 10:16:30;;;;;;;37.78;35.05;;;;;;;17.81;66.04;101168.03;4994402;28;20141;-69
2024/02/06 10:18:59;;;;;;;44.25;41.35;;;;;;;18.16;67.93;101169.69;4998420;28;20054;-69
2024/02/06 10:21:28;;;;;;;46.67;43.50;;;;;;;19.38;53.95;101160.50;4998795;28;20115;-69
2024/02/06 10:24:00;;;;;;;49.10;45.80;;;;;;;17.25;69.24;101158.94;4998671;28;20076;-69
2024/02/06 10:26:27;;;;;;;46.78;43.47;;;;;;;17.84;67.77;101154.09;5001371;28;20050;-69
2024/02/06 10:29:04;;;;;;;44.90;41.65;;;;;;;17.27;71.32;101149.56;5004703;28;20045;-69
2024/02/06 10:31:31;;;;;;;42.25;39.15;;;;;;;18.60;62.82;101153.63;5001173;28;20553;-68
2024/02/06 10:34:07;;;;;;;43.35;40.05;;;;;;;17.74;70.13;101135.91;4998997;28;20061;-68
2024/02/06 10:36:36;;;;;;;37.53;34.72;;;;;;;14.70;100.00;101138.25;4998955;28;20049;-68
2024/02/06 10:39:03;;;;;;;29.20;26.90;;;;;;;15.86;100.00;101130.16;5003691;28;20046;-68
2024/02/06 10:41:30;;;;;;;29.88;27.38;;;;;;;18.99;67.74;101122.13;4998148;28;20053;-68
2024/02/06 10:43:57;;;;;;;28.75;26.25;;;;;;;20.16;56.32;101106.22;5002185;28;20056;-68
2024/02/06 10:46:24;;;;;;;30.58;28.08;;;;;;;20.67;51.18;101106.50;4995399;28;20050;-68
2024/02/06 10:48:52;;;;;;;31.70;29.10;;;;;;;17.63;69.26;101113.44;4999798;28;20061;-68
2024/02/06 10:51:23;;;;;;;33.25;30.65;;;;;;;20.16;49.29;101103.50;5001874;28;20049;-68
2024/02/06 10:53:52;;;;;;;27.85;25.55;;;;;;;18.09;62.76;101099.94;4998921;28;20163;-69
2024/02/06 10:56:20;;;;;;;31.10;28.80;;;;;;;18.62;60.55;101100.41;5001666;28;20072;-68
2024/02/06 10:58:57;;;;;;;31.23;28.83;;;;;;;19.15;58.40;101086.25;5001212;28;20124;-68
2024/02/06 11:01:30;;;;;;;33.95;31.45;;;;;;;20.02;47.59;101078.06;4996891;28;20054;-68
2024/02/06 11:04:01;;;;;;;31.85;29.45;;;;;;;18.97;56.59;101067.72;5002948;28;20046;-69
2024/02/06 11:06:36;;;;;;;31.55;29.15;;;;;;;20.66;45.98;101066.28;5001580;28;20133;-67
2024/02/06 11:09:07;;;;;;;31.92;29.33;;;;;;;17.22;71.13;101063.59;5000715;28;20065;-66